sensor_id;sensor_type;location;lat;lon;timestamp;P1;durP1;ratioP1;P2;durP2;ratioP2
22441;SDS011;11388;54.456;9.752;2023-02-01T00:01:28;22.00;;;4.50;;
22441;SDS011;11388;54.456;9.752;2023-02-01T00:03:54;19.80;;;3.15;;
22441;SDS011;11388;54.456;9.752;2023-02-01T00:06:20;15.57;;;3.50;;
22441;SDS011;11388;54.456;9.752;2023-02-01T00:08:46;16.42;;;3.63;;
22441;SDS011;11388;54.456;9.752;2023-02-01T00:11:12;17.70;;;3.55;;
22441;SDS011;11388;54.456;9.752;2023-02-01T00:13:39;19.17;;;3.75;;
22441;SDS011;11388;54.456;9.752;2023-02-01T00:18:35;17.05;;;3.78;;
22441;SDS011;11388;54.456;9.752;2023-02-01T00:21:01;12.75;;;2.88;;
22441;SDS011;11388;54.456;9.752;2023-02-01T00:23:27;15.93;;;3.65;;
22441;SDS011;11388;54.456;9.752;2023-02-01T00:25:53;19.63;;;4.15;;
22441;SDS011;11388;54.456;9.752;2023-02-01T00:28:18;14.35;;;2.92;;
22441;SDS011;11388;54.456;9.752;2023-02-01T00:30:44;21.05;;;3.58;;
22441;SDS011;11388;54.456;9.752;2023-02-01T00:33:10;18.20;;;2.88;;
22441;SDS011;11388;54.456;9.752;2023-02-01T00:35:35;12.48;;;3.00;;
22441;SDS011;11388;54.456;9.752;2023-02-01T00:38:01;17.88;;;3.60;;
22441;SDS011;11388;54.456;9.752;2023-02-01T00:40:27;21.30;;;3.70;;
22441;SDS011;11388;54.456;9.752;2023-02-01T00:42:52;19.77;;;4.00;;
22441;SDS011;11388;54.456;9.752;2023-02-01T00:45:19;20.42;;;4.07;;
22441;SDS011;11388;54.456;9.752;2023-02-01T00:47:45;22.45;;;4.82;;
22441;SDS011;11388;54.456;9.752;2023-02-01T00:50:10;22.10;;;4.90;;
22441;SDS011;11388;54.456;9.752;2023-02-01T00:52:36;26.67;;;5.03;;
22441;SDS011;11388;54.456;9.752;2023-02-01T00:55:02;23.80;;;4.97;;
22441;SDS011;11388;54.456;9.752;2023-02-01T00:57:27;25.08;;;5.35;;
22441;SDS011;11388;54.456;9.752;2023-02-01T00:59:53;20.88;;;4.53;;
22441;SDS011;11388;54.456;9.752;2023-02-01T01:02:19;22.45;;;4.85;;
22441;SDS011;11388;54.456;9.752;2023-02-01T01:04:44;24.33;;;4.88;;
22441;SDS011;11388;54.456;9.752;2023-02-01T01:07:10;23.48;;;4.47;;
22441;SDS011;11388;54.456;9.752;2023-02-01T01:09:36;22.17;;;4.32;;
22441;SDS011;11388;54.456;9.752;2023-02-01T01:12:01;21.40;;;4.97;;
22441;SDS011;11388;54.456;9.752;2023-02-01T01:14:31;21.67;;;4.97;;
22441;SDS011;11388;54.456;9.752;2023-02-01T01:16:57;21.45;;;4.53;;
22441;SDS011;11388;54.456;9.752;2023-02-01T01:19:23;19.35;;;4.60;;
22441;SDS011;11388;54.456;9.752;2023-02-01T01:21:49;22.23;;;4.97;;
22441;SDS011;11388;54.456;9.752;2023-02-01T01:24:14;18.05;;;4.55;;
22441;SDS011;11388;54.456;9.752;2023-02-01T01:26:40;24.95;;;4.38;;
22441;SDS011;11388;54.456;9.752;2023-02-01T01:29:06;22.17;;;4.85;;
22441;SDS011;11388;54.456;9.752;2023-02-01T01:31:34;20.63;;;4.65;;
22441;SDS011;11388;54.456;9.752;2023-02-01T01:33:59;19.02;;;4.60;;
22441;SDS011;11388;54.456;9.752;2023-02-01T01:36:26;20.50;;;4.43;;
22441;SDS011;11388;54.456;9.752;2023-02-01T01:38:52;24.60;;;5.47;;
22441;SDS011;11388;54.456;9.752;2023-02-01T01:41:22;21.95;;;4.80;;
22441;SDS011;11388;54.456;9.752;2023-02-01T01:46:53;23.42;;;5.10;;
22441;SDS011;11388;54.456;9.752;2023-02-01T01:49:20;22.58;;;4.30;;
22441;SDS011;11388;54.456;9.752;2023-02-01T01:54:23;26.10;;;4.93;;
22441;SDS011;11388;54.456;9.752;2023-02-01T01:56:51;22.70;;;4.50;;
22441;SDS011;11388;54.456;9.752;2023-02-01T01:59:22;23.45;;;4.60;;
22441;SDS011;11388;54.456;9.752;2023-02-01T02:01:49;21.15;;;4.93;;
22441;SDS011;11388;54.456;9.752;2023-02-01T02:04:15;20.85;;;4.93;;
22441;SDS011;11388;54.456;9.752;2023-02-01T02:09:20;22.88;;;4.75;;
22441;SDS011;11388;54.456;9.752;2023-02-01T02:11:46;19.77;;;4.65;;
22441;SDS011;11388;54.456;9.752;2023-02-01T02:14:13;24.63;;;5.53;;
22441;SDS011;11388;54.456;9.752;2023-02-01T02:24:49;20.48;;;3.95;;
22441;SDS011;11388;54.456;9.752;2023-02-01T02:27:46;19.52;;;4.03;;
22441;SDS011;11388;54.456;9.752;2023-02-01T02:35:47;24.90;;;5.75;;
22441;SDS011;11388;54.456;9.752;2023-02-01T02:41:13;21.85;;;4.22;;
22441;SDS011;11388;54.456;9.752;2023-02-01T02:44:08;27.73;;;4.93;;
22441;SDS011;11388;54.456;9.752;2023-02-01T02:47:16;24.00;;;5.53;;
22441;SDS011;11388;54.456;9.752;2023-02-01T02:50:12;23.65;;;5.35;;
22441;SDS011;11388;54.456;9.752;2023-02-01T02:53:30;22.17;;;4.97;;
22441;SDS011;11388;54.456;9.752;2023-02-01T02:56:15;27.15;;;5.30;;
22441;SDS011;11388;54.456;9.752;2023-02-01T02:59:01;27.05;;;5.38;;
22441;SDS011;11388;54.456;9.752;2023-02-01T03:01:47;21.02;;;5.53;;
22441;SDS011;11388;54.456;9.752;2023-02-01T03:04:33;24.45;;;4.30;;
22441;SDS011;11388;54.456;9.752;2023-02-01T03:07:10;21.48;;;4.72;;
22441;SDS011;11388;54.456;9.752;2023-02-01T03:09:57;22.95;;;5.30;;
22441;SDS011;11388;54.456;9.752;2023-02-01T03:12:29;21.10;;;4.47;;
22441;SDS011;11388;54.456;9.752;2023-02-01T03:15:16;22.60;;;4.75;;
22441;SDS011;11388;54.456;9.752;2023-02-01T03:17:43;21.00;;;4.43;;
22441;SDS011;11388;54.456;9.752;2023-02-01T03:20:10;21.63;;;4.57;;
22441;SDS011;11388;54.456;9.752;2023-02-01T03:22:39;23.13;;;4.70;;
22441;SDS011;11388;54.456;9.752;2023-02-01T03:25:12;24.00;;;5.20;;
22441;SDS011;11388;54.456;9.752;2023-02-01T03:27:54;25.35;;;4.93;;
22441;SDS011;11388;54.456;9.752;2023-02-01T03:30:27;27.20;;;5.38;;
22441;SDS011;11388;54.456;9.752;2023-02-01T03:32:57;19.25;;;4.65;;
22441;SDS011;11388;54.456;9.752;2023-02-01T03:35:40;15.07;;;2.80;;
22441;SDS011;11388;54.456;9.752;2023-02-01T03:40:55;16.30;;;3.67;;
22441;SDS011;11388;54.456;9.752;2023-02-01T03:43:28;14.93;;;3.30;;
22441;SDS011;11388;54.456;9.752;2023-02-01T03:46:01;14.77;;;3.53;;
22441;SDS011;11388;54.456;9.752;2023-02-01T03:48:29;15.20;;;3.33;;
22441;SDS011;11388;54.456;9.752;2023-02-01T03:50:56;13.32;;;2.97;;
22441;SDS011;11388;54.456;9.752;2023-02-01T03:53:24;14.65;;;3.17;;
22441;SDS011;11388;54.456;9.752;2023-02-01T03:55:51;14.23;;;2.80;;
22441;SDS011;11388;54.456;9.752;2023-02-01T03:58:20;11.80;;;2.67;;
22441;SDS011;11388;54.456;9.752;2023-02-01T04:03:18;11.13;;;2.88;;
22441;SDS011;11388;54.456;9.752;2023-02-01T04:05:44;12.23;;;2.60;;
22441;SDS011;11388;54.456;9.752;2023-02-01T04:08:12;11.88;;;2.63;;
22441;SDS011;11388;54.456;9.752;2023-02-01T04:10:37;10.98;;;1.90;;
22441;SDS011;11388;54.456;9.752;2023-02-01T04:13:03;11.20;;;2.40;;
22441;SDS011;11388;54.456;9.752;2023-02-01T04:15:29;9.75;;;2.47;;
22441;SDS011;11388;54.456;9.752;2023-02-01T04:17:54;13.68;;;2.70;;
22441;SDS011;11388;54.456;9.752;2023-02-01T04:20:20;11.93;;;2.50;;
22441;SDS011;11388;54.456;9.752;2023-02-01T04:22:46;11.68;;;2.60;;
22441;SDS011;11388;54.456;9.752;2023-02-01T04:25:11;12.57;;;2.83;;
22441;SDS011;11388;54.456;9.752;2023-02-01T04:27:37;15.30;;;2.97;;
22441;SDS011;11388;54.456;9.752;2023-02-01T04:30:03;15.25;;;3.22;;
22441;SDS011;11388;54.456;9.752;2023-02-01T04:32:29;14.35;;;3.15;;
22441;SDS011;11388;54.456;9.752;2023-02-01T04:34:55;9.05;;;2.30;;
22441;SDS011;11388;54.456;9.752;2023-02-01T04:37:21;15.50;;;3.22;;
22441;SDS011;11388;54.456;9.752;2023-02-01T04:39:46;16.02;;;3.20;;
22441;SDS011;11388;54.456;9.752;2023-02-01T04:42:12;16.33;;;3.17;;
22441;SDS011;11388;54.456;9.752;2023-02-01T04:44:38;17.77;;;3.22;;
22441;SDS011;11388;54.456;9.752;2023-02-01T04:47:06;11.38;;;3.15;;
22441;SDS011;11388;54.456;9.752;2023-02-01T04:49:32;13.95;;;2.90;;
22441;SDS011;11388;54.456;9.752;2023-02-01T04:51:58;13.65;;;3.00;;
22441;SDS011;11388;54.456;9.752;2023-02-01T04:54:24;17.00;;;3.13;;
22441;SDS011;11388;54.456;9.752;2023-02-01T04:56:50;14.95;;;2.78;;
22441;SDS011;11388;54.456;9.752;2023-02-01T04:59:16;17.15;;;3.60;;
22441;SDS011;11388;54.456;9.752;2023-02-01T05:01:41;17.55;;;3.30;;
22441;SDS011;11388;54.456;9.752;2023-02-01T05:04:07;15.18;;;2.78;;
22441;SDS011;11388;54.456;9.752;2023-02-01T05:06:33;16.13;;;3.03;;
22441;SDS011;11388;54.456;9.752;2023-02-01T05:08:58;16.13;;;3.33;;
22441;SDS011;11388;54.456;9.752;2023-02-01T05:11:24;14.23;;;3.13;;
22441;SDS011;11388;54.456;9.752;2023-02-01T05:14:08;15.68;;;3.05;;
22441;SDS011;11388;54.456;9.752;2023-02-01T05:16:34;15.73;;;2.95;;
22441;SDS011;11388;54.456;9.752;2023-02-01T05:18:59;15.82;;;2.83;;
22441;SDS011;11388;54.456;9.752;2023-02-01T05:21:25;14.57;;;3.40;;
22441;SDS011;11388;54.456;9.752;2023-02-01T05:23:51;13.98;;;2.90;;
22441;SDS011;11388;54.456;9.752;2023-02-01T05:26:35;13.80;;;2.75;;
22441;SDS011;11388;54.456;9.752;2023-02-01T05:29:02;11.57;;;2.80;;
22441;SDS011;11388;54.456;9.752;2023-02-01T05:31:28;16.73;;;3.22;;
22441;SDS011;11388;54.456;9.752;2023-02-01T05:33:54;12.82;;;2.72;;
22441;SDS011;11388;54.456;9.752;2023-02-01T05:36:20;8.90;;;2.30;;
22441;SDS011;11388;54.456;9.752;2023-02-01T05:38:45;11.85;;;2.47;;
22441;SDS011;11388;54.456;9.752;2023-02-01T05:41:11;11.93;;;2.75;;
22441;SDS011;11388;54.456;9.752;2023-02-01T05:43:37;14.32;;;2.88;;
22441;SDS011;11388;54.456;9.752;2023-02-01T05:46:02;15.23;;;2.67;;
22441;SDS011;11388;54.456;9.752;2023-02-01T05:48:28;13.02;;;2.58;;
22441;SDS011;11388;54.456;9.752;2023-02-01T05:50:54;12.40;;;2.70;;
22441;SDS011;11388;54.456;9.752;2023-02-01T05:53:19;16.10;;;3.17;;
22441;SDS011;11388;54.456;9.752;2023-02-01T05:55:45;13.85;;;2.88;;
22441;SDS011;11388;54.456;9.752;2023-02-01T05:58:11;14.90;;;3.10;;
22441;SDS011;11388;54.456;9.752;2023-02-01T06:00:37;12.45;;;2.50;;
22441;SDS011;11388;54.456;9.752;2023-02-01T06:03:03;13.48;;;2.53;;
22441;SDS011;11388;54.456;9.752;2023-02-01T06:05:29;18.40;;;3.08;;
22441;SDS011;11388;54.456;9.752;2023-02-01T06:07:54;17.70;;;2.90;;
22441;SDS011;11388;54.456;9.752;2023-02-01T06:10:20;17.98;;;3.17;;
22441;SDS011;11388;54.456;9.752;2023-02-01T06:12:46;13.52;;;3.17;;
22441;SDS011;11388;54.456;9.752;2023-02-01T06:15:12;15.77;;;3.30;;
22441;SDS011;11388;54.456;9.752;2023-02-01T06:17:40;16.52;;;3.38;;
22441;SDS011;11388;54.456;9.752;2023-02-01T06:20:08;11.88;;;2.70;;
22441;SDS011;11388;54.456;9.752;2023-02-01T06:22:37;16.85;;;3.88;;
22441;SDS011;11388;54.456;9.752;2023-02-01T06:25:04;12.35;;;2.67;;
22441;SDS011;11388;54.456;9.752;2023-02-01T06:27:31;17.05;;;2.85;;
22441;SDS011;11388;54.456;9.752;2023-02-01T06:29:57;14.30;;;2.78;;
22441;SDS011;11388;54.456;9.752;2023-02-01T06:32:23;14.77;;;2.63;;
22441;SDS011;11388;54.456;9.752;2023-02-01T06:34:48;13.00;;;2.65;;
22441;SDS011;11388;54.456;9.752;2023-02-01T06:37:14;16.00;;;3.15;;
22441;SDS011;11388;54.456;9.752;2023-02-01T06:39:40;16.13;;;2.90;;
22441;SDS011;11388;54.456;9.752;2023-02-01T06:42:06;16.38;;;3.15;;
22441;SDS011;11388;54.456;9.752;2023-02-01T06:44:31;18.55;;;3.33;;
22441;SDS011;11388;54.456;9.752;2023-02-01T06:46:57;14.95;;;3.08;;
22441;SDS011;11388;54.456;9.752;2023-02-01T06:49:23;16.35;;;3.25;;
22441;SDS011;11388;54.456;9.752;2023-02-01T06:51:48;17.10;;;3.42;;
22441;SDS011;11388;54.456;9.752;2023-02-01T06:54:14;19.15;;;3.53;;
22441;SDS011;11388;54.456;9.752;2023-02-01T06:56:40;17.48;;;3.38;;
22441;SDS011;11388;54.456;9.752;2023-02-01T06:59:06;13.27;;;3.05;;
22441;SDS011;11388;54.456;9.752;2023-02-01T07:01:32;19.13;;;3.50;;
22441;SDS011;11388;54.456;9.752;2023-02-01T07:03:58;19.10;;;4.00;;
22441;SDS011;11388;54.456;9.752;2023-02-01T07:06:23;15.27;;;3.42;;
22441;SDS011;11388;54.456;9.752;2023-02-01T07:08:50;16.77;;;3.22;;
22441;SDS011;11388;54.456;9.752;2023-02-01T07:11:16;17.30;;;3.67;;
22441;SDS011;11388;54.456;9.752;2023-02-01T07:13:43;18.67;;;3.83;;
22441;SDS011;11388;54.456;9.752;2023-02-01T07:16:11;19.92;;;4.78;;
22441;SDS011;11388;54.456;9.752;2023-02-01T07:18:38;22.27;;;4.78;;
22441;SDS011;11388;54.456;9.752;2023-02-01T07:21:04;19.73;;;4.53;;
22441;SDS011;11388;54.456;9.752;2023-02-01T07:23:30;22.63;;;4.93;;
22441;SDS011;11388;54.456;9.752;2023-02-01T07:25:59;19.55;;;4.03;;
22441;SDS011;11388;54.456;9.752;2023-02-01T07:28:28;17.65;;;3.55;;
22441;SDS011;11388;54.456;9.752;2023-02-01T07:31:01;17.73;;;4.18;;
22441;SDS011;11388;54.456;9.752;2023-02-01T07:33:28;18.15;;;4.07;;
22441;SDS011;11388;54.456;9.752;2023-02-01T07:35:53;16.05;;;3.47;;
22441;SDS011;11388;54.456;9.752;2023-02-01T07:38:19;17.23;;;4.03;;
22441;SDS011;11388;54.456;9.752;2023-02-01T07:40:46;18.00;;;3.78;;
22441;SDS011;11388;54.456;9.752;2023-02-01T07:43:12;20.73;;;4.20;;
22441;SDS011;11388;54.456;9.752;2023-02-01T07:45:38;23.45;;;3.92;;
22441;SDS011;11388;54.456;9.752;2023-02-01T07:48:04;16.88;;;4.32;;
22441;SDS011;11388;54.456;9.752;2023-02-01T07:50:29;17.65;;;3.35;;
22441;SDS011;11388;54.456;9.752;2023-02-01T07:52:55;19.15;;;3.97;;
22441;SDS011;11388;54.456;9.752;2023-02-01T07:55:24;15.68;;;3.35;;
22441;SDS011;11388;54.456;9.752;2023-02-01T07:57:51;16.48;;;3.42;;
22441;SDS011;11388;54.456;9.752;2023-02-01T08:00:17;15.77;;;3.42;;
22441;SDS011;11388;54.456;9.752;2023-02-01T08:03:09;16.20;;;3.20;;
22441;SDS011;11388;54.456;9.752;2023-02-01T08:05:35;17.15;;;3.60;;
22441;SDS011;11388;54.456;9.752;2023-02-01T08:08:01;14.88;;;2.97;;
22441;SDS011;11388;54.456;9.752;2023-02-01T08:10:27;13.48;;;3.13;;
22441;SDS011;11388;54.456;9.752;2023-02-01T08:12:57;17.83;;;3.60;;
22441;SDS011;11388;54.456;9.752;2023-02-01T08:15:25;15.15;;;3.00;;
22441;SDS011;11388;54.456;9.752;2023-02-01T08:17:51;11.98;;;3.30;;
22441;SDS011;11388;54.456;9.752;2023-02-01T08:20:19;17.77;;;3.63;;
22441;SDS011;11388;54.456;9.752;2023-02-01T08:22:47;10.93;;;2.70;;
22441;SDS011;11388;54.456;9.752;2023-02-01T08:25:12;16.08;;;3.42;;
22441;SDS011;11388;54.456;9.752;2023-02-01T08:27:38;15.27;;;2.80;;
22441;SDS011;11388;54.456;9.752;2023-02-01T08:30:04;17.85;;;3.53;;
22441;SDS011;11388;54.456;9.752;2023-02-01T08:32:32;15.48;;;2.97;;
22441;SDS011;11388;54.456;9.752;2023-02-01T08:34:58;18.52;;;3.28;;
22441;SDS011;11388;54.456;9.752;2023-02-01T08:37:24;17.80;;;3.45;;
22441;SDS011;11388;54.456;9.752;2023-02-01T08:39:49;16.88;;;3.65;;
22441;SDS011;11388;54.456;9.752;2023-02-01T08:42:16;15.18;;;3.40;;
22441;SDS011;11388;54.456;9.752;2023-02-01T08:45:01;13.95;;;2.97;;
22441;SDS011;11388;54.456;9.752;2023-02-01T08:47:28;15.32;;;2.63;;
22441;SDS011;11388;54.456;9.752;2023-02-01T08:49:55;14.60;;;3.08;;
22441;SDS011;11388;54.456;9.752;2023-02-01T08:52:20;10.65;;;2.83;;
22441;SDS011;11388;54.456;9.752;2023-02-01T08:54:46;11.27;;;2.95;;
22441;SDS011;11388;54.456;9.752;2023-02-01T08:57:12;11.05;;;2.42;;
22441;SDS011;11388;54.456;9.752;2023-02-01T08:59:38;16.15;;;3.15;;
22441;SDS011;11388;54.456;9.752;2023-02-01T09:02:03;14.77;;;3.10;;
22441;SDS011;11388;54.456;9.752;2023-02-01T09:04:29;12.32;;;2.65;;
22441;SDS011;11388;54.456;9.752;2023-02-01T09:06:55;14.65;;;2.75;;
22441;SDS011;11388;54.456;9.752;2023-02-01T09:09:21;16.88;;;3.38;;
22441;SDS011;11388;54.456;9.752;2023-02-01T09:11:47;17.60;;;3.47;;
22441;SDS011;11388;54.456;9.752;2023-02-01T09:14:15;19.15;;;3.50;;
22441;SDS011;11388;54.456;9.752;2023-02-01T09:16:41;14.77;;;3.38;;
22441;SDS011;11388;54.456;9.752;2023-02-01T09:19:07;16.05;;;3.20;;
22441;SDS011;11388;54.456;9.752;2023-02-01T09:21:33;13.65;;;3.30;;
22441;SDS011;11388;54.456;9.752;2023-02-01T09:23:59;16.05;;;3.13;;
22441;SDS011;11388;54.456;9.752;2023-02-01T09:26:27;16.52;;;3.35;;
22441;SDS011;11388;54.456;9.752;2023-02-01T09:28:53;17.23;;;3.47;;
22441;SDS011;11388;54.456;9.752;2023-02-01T09:31:18;15.75;;;3.38;;
22441;SDS011;11388;54.456;9.752;2023-02-01T09:33:44;17.70;;;3.78;;
22441;SDS011;11388;54.456;9.752;2023-02-01T09:36:10;16.45;;;3.13;;
22441;SDS011;11388;54.456;9.752;2023-02-01T09:38:35;17.35;;;3.65;;
22441;SDS011;11388;54.456;9.752;2023-02-01T09:41:01;18.00;;;3.55;;
22441;SDS011;11388;54.456;9.752;2023-02-01T09:46:11;16.40;;;3.10;;
22441;SDS011;11388;54.456;9.752;2023-02-01T09:48:47;14.18;;;3.22;;
22441;SDS011;11388;54.456;9.752;2023-02-01T09:51:22;17.90;;;3.95;;
22441;SDS011;11388;54.456;9.752;2023-02-01T09:54:00;17.35;;;3.97;;
22441;SDS011;11388;54.456;9.752;2023-02-01T09:56:49;21.25;;;4.20;;
22441;SDS011;11388;54.456;9.752;2023-02-01T10:02:14;13.20;;;2.90;;
22441;SDS011;11388;54.456;9.752;2023-02-01T10:04:49;18.23;;;3.30;;
22441;SDS011;11388;54.456;9.752;2023-02-01T10:12:53;19.33;;;4.45;;
22441;SDS011;11388;54.456;9.752;2023-02-01T10:18:42;22.35;;;4.10;;
22441;SDS011;11388;54.456;9.752;2023-02-01T10:24:13;20.52;;;4.43;;
22441;SDS011;11388;54.456;9.752;2023-02-01T10:29:40;20.33;;;4.57;;
22441;SDS011;11388;54.456;9.752;2023-02-01T10:32:18;15.57;;;3.50;;
22441;SDS011;11388;54.456;9.752;2023-02-01T10:34:48;21.65;;;4.13;;
22441;SDS011;11388;54.456;9.752;2023-02-01T10:37:24;18.70;;;4.00;;
22441;SDS011;11388;54.456;9.752;2023-02-01T10:39:54;18.77;;;3.83;;
22441;SDS011;11388;54.456;9.752;2023-02-01T10:42:23;25.23;;;4.35;;
22441;SDS011;11388;54.456;9.752;2023-02-01T10:44:51;17.92;;;3.60;;
22441;SDS011;11388;54.456;9.752;2023-02-01T10:47:19;19.25;;;4.00;;
22441;SDS011;11388;54.456;9.752;2023-02-01T10:50:03;17.15;;;3.65;;
22441;SDS011;11388;54.456;9.752;2023-02-01T10:52:43;15.90;;;3.20;;
22441;SDS011;11388;54.456;9.752;2023-02-01T10:55:26;13.77;;;3.17;;
22441;SDS011;11388;54.456;9.752;2023-02-01T10:58:25;18.23;;;3.92;;
22441;SDS011;11388;54.456;9.752;2023-02-01T11:00:57;19.13;;;3.50;;
22441;SDS011;11388;54.456;9.752;2023-02-01T11:03:40;20.42;;;4.25;;
22441;SDS011;11388;54.456;9.752;2023-02-01T11:09:38;20.23;;;4.07;;
22441;SDS011;11388;54.456;9.752;2023-02-01T11:14:16;22.10;;;4.55;;
22441;SDS011;11388;54.456;9.752;2023-02-01T11:16:55;21.90;;;4.07;;
22441;SDS011;11388;54.456;9.752;2023-02-01T11:19:25;20.52;;;4.15;;
22441;SDS011;11388;54.456;9.752;2023-02-01T11:21:52;17.30;;;3.38;;
22441;SDS011;11388;54.456;9.752;2023-02-01T11:26:49;16.23;;;3.58;;
22441;SDS011;11388;54.456;9.752;2023-02-01T11:29:18;15.73;;;3.90;;
22441;SDS011;11388;54.456;9.752;2023-02-01T11:31:47;17.98;;;3.80;;
22441;SDS011;11388;54.456;9.752;2023-02-01T11:34:34;16.92;;;3.78;;
22441;SDS011;11388;54.456;9.752;2023-02-01T11:37:02;19.10;;;3.97;;
22441;SDS011;11388;54.456;9.752;2023-02-01T11:39:32;20.52;;;4.43;;
22441;SDS011;11388;54.456;9.752;2023-02-01T11:42:01;14.75;;;3.30;;
22441;SDS011;11388;54.456;9.752;2023-02-01T11:44:41;18.42;;;3.78;;
22441;SDS011;11388;54.456;9.752;2023-02-01T11:49:45;12.27;;;2.72;;
22441;SDS011;11388;54.456;9.752;2023-02-01T11:52:22;7.43;;;1.50;;
22441;SDS011;11388;54.456;9.752;2023-02-01T12:30:08;10.80;;;1.98;;
22441;SDS011;11388;54.456;9.752;2023-02-01T12:36:00;10.75;;;2.20;;
22441;SDS011;11388;54.456;9.752;2023-02-01T12:45:09;9.40;;;2.40;;
22441;SDS011;11388;54.456;9.752;2023-02-01T12:47:23;8.10;;;1.40;;
22441;SDS011;11388;54.456;9.752;2023-02-01T12:52:30;6.75;;;1.70;;
22441;SDS011;11388;54.456;9.752;2023-02-01T12:57:31;7.97;;;1.70;;
22441;SDS011;11388;54.456;9.752;2023-02-01T13:02:38;9.05;;;2.13;;
22441;SDS011;11388;54.456;9.752;2023-02-01T13:05:28;12.18;;;2.05;;
22441;SDS011;11388;54.456;9.752;2023-02-01T13:08:14;7.88;;;1.50;;
22441;SDS011;11388;54.456;9.752;2023-02-01T13:10:47;7.30;;;2.10;;
22441;SDS011;11388;54.456;9.752;2023-02-01T13:13:31;6.78;;;1.80;;
22441;SDS011;11388;54.456;9.752;2023-02-01T13:18:43;9.77;;;1.70;;
22441;SDS011;11388;54.456;9.752;2023-02-01T13:21:14;7.78;;;1.77;;
22441;SDS011;11388;54.456;9.752;2023-02-01T13:23:46;10.07;;;2.35;;
22441;SDS011;11388;54.456;9.752;2023-02-01T13:26:13;10.50;;;2.15;;
22441;SDS011;11388;54.456;9.752;2023-02-01T13:36:44;14.13;;;2.65;;
22441;SDS011;11388;54.456;9.752;2023-02-01T13:45:26;17.15;;;2.97;;
22441;SDS011;11388;54.456;9.752;2023-02-01T13:47:58;17.95;;;3.05;;
22441;SDS011;11388;54.456;9.752;2023-02-01T13:50:27;13.77;;;3.08;;
22441;SDS011;11388;54.456;9.752;2023-02-01T13:52:55;17.20;;;3.30;;
22441;SDS011;11388;54.456;9.752;2023-02-01T13:55:28;16.45;;;2.95;;
22441;SDS011;11388;54.456;9.752;2023-02-01T13:58:18;13.35;;;2.88;;
22441;SDS011;11388;54.456;9.752;2023-02-01T14:00:46;16.90;;;3.53;;
22441;SDS011;11388;54.456;9.752;2023-02-01T14:10:47;12.35;;;3.22;;
22441;SDS011;11388;54.456;9.752;2023-02-01T14:13:29;18.15;;;3.70;;
22441;SDS011;11388;54.456;9.752;2023-02-01T14:23:48;15.10;;;3.42;;
22441;SDS011;11388;54.456;9.752;2023-02-01T14:26:26;16.95;;;3.92;;
22441;SDS011;11388;54.456;9.752;2023-02-01T14:31:51;19.30;;;3.58;;
22441;SDS011;11388;54.456;9.752;2023-02-01T14:52:45;17.13;;;3.65;;
22441;SDS011;11388;54.456;9.752;2023-02-01T14:57:49;19.67;;;3.90;;
22441;SDS011;11388;54.456;9.752;2023-02-01T15:00:19;19.33;;;3.78;;
22441;SDS011;11388;54.456;9.752;2023-02-01T15:02:50;17.55;;;4.47;;
22441;SDS011;11388;54.456;9.752;2023-02-01T15:05:31;19.15;;;3.67;;
22441;SDS011;11388;54.456;9.752;2023-02-01T15:08:00;16.77;;;4.00;;
22441;SDS011;11388;54.456;9.752;2023-02-01T15:10:31;20.20;;;4.00;;
22441;SDS011;11388;54.456;9.752;2023-02-01T15:12:58;20.50;;;4.70;;
22441;SDS011;11388;54.456;9.752;2023-02-01T15:15:24;17.98;;;3.80;;
22441;SDS011;11388;54.456;9.752;2023-02-01T15:17:51;19.75;;;4.70;;
22441;SDS011;11388;54.456;9.752;2023-02-01T15:20:23;19.83;;;4.45;;
22441;SDS011;11388;54.456;9.752;2023-02-01T15:25:25;18.00;;;3.88;;
22441;SDS011;11388;54.456;9.752;2023-02-01T15:27:52;21.00;;;4.28;;
22441;SDS011;11388;54.456;9.752;2023-02-01T15:30:19;20.02;;;4.95;;
22441;SDS011;11388;54.456;9.752;2023-02-01T15:32:47;21.20;;;4.72;;
22441;SDS011;11388;54.456;9.752;2023-02-01T15:38:18;20.83;;;4.53;;
22441;SDS011;11388;54.456;9.752;2023-02-01T15:40:58;25.02;;;4.97;;
22441;SDS011;11388;54.456;9.752;2023-02-01T15:48:57;18.80;;;4.70;;
22441;SDS011;11388;54.456;9.752;2023-02-01T15:51:23;20.30;;;4.57;;
22441;SDS011;11388;54.456;9.752;2023-02-01T15:56:40;20.30;;;4.72;;
22441;SDS011;11388;54.456;9.752;2023-02-01T15:59:13;25.45;;;5.25;;
22441;SDS011;11388;54.456;9.752;2023-02-01T16:01:41;24.60;;;4.97;;
22441;SDS011;11388;54.456;9.752;2023-02-01T16:04:13;22.15;;;5.18;;
22441;SDS011;11388;54.456;9.752;2023-02-01T16:06:45;23.17;;;4.97;;
22441;SDS011;11388;54.456;9.752;2023-02-01T16:09:15;27.13;;;4.88;;
22441;SDS011;11388;54.456;9.752;2023-02-01T16:14:18;20.30;;;4.40;;
22441;SDS011;11388;54.456;9.752;2023-02-01T16:16:43;22.85;;;4.78;;
22441;SDS011;11388;54.456;9.752;2023-02-01T16:19:09;25.02;;;5.45;;
22441;SDS011;11388;54.456;9.752;2023-02-01T16:21:35;20.75;;;4.63;;
22441;SDS011;11388;54.456;9.752;2023-02-01T16:24:01;24.92;;;5.22;;
22441;SDS011;11388;54.456;9.752;2023-02-01T16:26:29;24.15;;;5.18;;
22441;SDS011;11388;54.456;9.752;2023-02-01T16:28:56;27.67;;;5.15;;
22441;SDS011;11388;54.456;9.752;2023-02-01T16:31:25;25.83;;;5.50;;
22441;SDS011;11388;54.456;9.752;2023-02-01T16:33:53;22.92;;;4.90;;
22441;SDS011;11388;54.456;9.752;2023-02-01T16:36:19;22.20;;;4.88;;
22441;SDS011;11388;54.456;9.752;2023-02-01T16:38:45;22.83;;;5.00;;
22441;SDS011;11388;54.456;9.752;2023-02-01T16:41:13;23.88;;;5.72;;
22441;SDS011;11388;54.456;9.752;2023-02-01T16:43:40;27.48;;;4.95;;
22441;SDS011;11388;54.456;9.752;2023-02-01T16:46:08;19.77;;;4.50;;
22441;SDS011;11388;54.456;9.752;2023-02-01T16:48:42;21.13;;;5.18;;
22441;SDS011;11388;54.456;9.752;2023-02-01T16:51:13;27.58;;;4.72;;
22441;SDS011;11388;54.456;9.752;2023-02-01T16:53:41;21.95;;;4.97;;
22441;SDS011;11388;54.456;9.752;2023-02-01T16:56:17;22.02;;;5.03;;
22441;SDS011;11388;54.456;9.752;2023-02-01T16:58:46;21.98;;;5.13;;
22441;SDS011;11388;54.456;9.752;2023-02-01T17:01:12;21.80;;;4.85;;
22441;SDS011;11388;54.456;9.752;2023-02-01T17:03:40;26.63;;;5.35;;
22441;SDS011;11388;54.456;9.752;2023-02-01T17:06:07;23.40;;;4.80;;
22441;SDS011;11388;54.456;9.752;2023-02-01T17:08:35;20.08;;;4.60;;
22441;SDS011;11388;54.456;9.752;2023-02-01T17:11:04;21.17;;;4.75;;
22441;SDS011;11388;54.456;9.752;2023-02-01T17:13:30;25.40;;;5.35;;
22441;SDS011;11388;54.456;9.752;2023-02-01T17:15:58;21.63;;;4.20;;
22441;SDS011;11388;54.456;9.752;2023-02-01T17:18:34;21.80;;;4.45;;
22441;SDS011;11388;54.456;9.752;2023-02-01T17:21:01;17.88;;;4.47;;
22441;SDS011;11388;54.456;9.752;2023-02-01T17:23:29;17.63;;;3.97;;
22441;SDS011;11388;54.456;9.752;2023-02-01T17:25:55;18.60;;;3.92;;
22441;SDS011;11388;54.456;9.752;2023-02-01T17:28:22;15.57;;;3.65;;
22441;SDS011;11388;54.456;9.752;2023-02-01T17:30:48;21.17;;;4.63;;
22441;SDS011;11388;54.456;9.752;2023-02-01T17:33:24;15.52;;;3.38;;
22441;SDS011;11388;54.456;9.752;2023-02-01T17:35:58;20.88;;;4.47;;
22441;SDS011;11388;54.456;9.752;2023-02-01T17:38:24;22.95;;;4.78;;
22441;SDS011;11388;54.456;9.752;2023-02-01T17:40:50;20.50;;;4.85;;
22441;SDS011;11388;54.456;9.752;2023-02-01T17:43:18;22.20;;;4.68;;
22441;SDS011;11388;54.456;9.752;2023-02-01T17:45:49;20.35;;;4.75;;
22441;SDS011;11388;54.456;9.752;2023-02-01T17:48:20;22.10;;;5.45;;
22441;SDS011;11388;54.456;9.752;2023-02-01T17:50:47;21.25;;;4.47;;
22441;SDS011;11388;54.456;9.752;2023-02-01T17:53:16;20.42;;;5.28;;
22441;SDS011;11388;54.456;9.752;2023-02-01T17:55:45;23.08;;;5.60;;
22441;SDS011;11388;54.456;9.752;2023-02-01T17:58:11;22.67;;;5.13;;